Festina Lente — WDG6466 — position and weather

sailwx.info

Track history (hours):
 
Tides and Currents Weather Stations Pressure Air Temp Water Temp Dewpoint Dewpoint Depression Visibility Wind Speed Wind Dir Waves Ship Positions

Festina Lente

Owner: PK Ocean Charters, LLC, Sunnyvale, CA. More information available from US FCC via Universal Licensing System and Coast Guard Vessel Documentation Center.

Last reported at 2018-Jun-04 01:22 UTC. Time now 2018-Jul-17 04:05 UTC.
Position N 37°35' W 122°15'.
Warning: this ship's position is 43 days out of date.

Length 14 m.

Type: Sailing vessel. MMSI: 367557310.

Date/timePositionNaut miles runAvg speedWind from/ knotsBaromVisibWave heightAir tempDewpointWater temp
2018-Jun-04 01:22N 37°35' W 122°15'3 7.9
2018-Jun-04 01:00N 37°38' W 122°17'4 7.5
2018-Jun-04 00:30N 37°41' W 122°20'3 6.8
2018-Jun-04 00:00N 37°44' W 122°21'3 6.3
2018-Jun-03 23:30N 37°47' W 122°23'3 6.0
2018-Jun-03 23:00N 37°50' W 122°24'2 4.8
2018-Jun-03 22:30N 37°52' W 122°25'1 1.4
2018-Jun-03 21:58N 37°52' W 122°26'0 0.0
2018-Jun-03 21:28N 37°52' W 122°26'0 0.0
2018-Jun-03 20:58N 37°52' W 122°26'0 0.0
2018-Jun-03 20:28N 37°52' W 122°26'0 0.0
2018-Jun-03 19:58N 37°52' W 122°26'0 0.0
2018-Jun-03 19:28N 37°52' W 122°26'0 0.0
2018-Jun-03 18:58N 37°52' W 122°26'0 0.0
2018-Jun-03 18:28N 37°52' W 122°26'0 0.0
2018-Jun-03 17:58N 37°52' W 122°26'0 0.0
2018-Jun-03 17:28N 37°52' W 122°26'0 0.0
2018-Jun-03 16:49N 37°52' W 122°26'0 0.0
2018-Jun-03 16:28N 37°52' W 122°26'0 0.0
2018-Jun-03 15:56N 37°52' W 122°26'0 0.0
2018-Jun-03 15:28N 37°52' W 122°26'0 0.0
2018-Jun-03 14:56N 37°52' W 122°26'0 0.0
2018-Jun-03 14:16N 37°52' W 122°26'0 0.0
2018-Jun-03 13:58N 37°52' W 122°26'0 0.0
2018-Jun-03 13:28N 37°52' W 122°26'0 0.0
2018-Jun-03 12:28N 37°52' W 122°26'0 0.0
2018-Jun-03 11:49N 37°52' W 122°26'0 0.0
2018-Jun-03 11:22N 37°52' W 122°26'0 0.0
2018-Jun-03 10:58N 37°52' W 122°26'0 0.0
2018-Jun-03 10:28N 37°52' W 122°26'0 0.0
2018-Jun-03 09:58N 37°52' W 122°26'0 0.0
2018-Jun-03 09:28N 37°52' W 122°26'0 0.0
2018-Jun-03 08:58N 37°52' W 122°26'0 0.0
2018-Jun-03 08:28N 37°52' W 122°26'0 0.0
2018-Jun-03 07:58N 37°52' W 122°26'0 0.0
2018-Jun-03 07:28N 37°52' W 122°26'0 0.0
2018-Jun-03 06:58N 37°52' W 122°26'0 0.0
2018-Jun-03 06:28N 37°52' W 122°26'0 0.0
2018-Jun-03 05:58N 37°52' W 122°26'0 0.0
2018-Jun-03 05:28N 37°52' W 122°26'0 0.0
2018-Jun-03 04:58N 37°52' W 122°26'0 0.0
2018-Jun-03 04:28N 37°52' W 122°26'0 0.0
2018-Jun-03 03:58N 37°52' W 122°26'0 0.0
2018-Jun-03 03:28N 37°52' W 122°26'0 0.0
2018-Jun-03 02:59N 37°52' W 122°26'1 2.9
2018-Jun-03 02:30N 37°53' W 122°25'3 6.7
2018-Jun-03 02:01N 37°55' W 122°21'2 3.2
2018-Jun-03 01:30N 37°54' W 122°23'3 6.3
2018-Jun-03 01:00N 37°52' W 122°26'0 0.3
2018-Jun-03 00:29N 37°52' W 122°26'0 0.0
2018-Jun-02 23:59N 37°52' W 122°26'0 0.0
2018-Jun-02 23:29N 37°52' W 122°26'1 1.8
2018-Jun-02 23:00N 37°52' W 122°25'3 6.9
2018-Jun-02 22:30N 37°49' W 122°24'3 7.0
2018-Jun-02 22:00N 37°46' W 122°22'3 6.3
2018-Jun-02 21:30N 37°43' W 122°21'3 6.2
2018-Jun-02 21:00N 37°40' W 122°19'3 6.0
2018-Jun-02 20:30N 37°37' W 122°17'3 5.7
2018-Jun-02 20:00N 37°35' W 122°15'  
2018-May-29 00:03N 37°33' W 122°12'1 3.9
2018-May-28 23:45N 37°34' W 122°13'5 4.7
2018-May-28 22:47N 37°37' W 122°17'3 6.3
2018-May-28 22:19N 37°39' W 122°19'2 5.1
2018-May-28 22:00N 37°41' W 122°20'3 5.8
2018-May-28 21:30N 37°44' W 122°21'3 5.2
2018-May-28 21:00N 37°46' W 122°22'2 4.4
2018-May-28 20:30N 37°48' W 122°23'3 5.7
2018-May-28 20:00N 37°50' W 122°26'3 5.1
2018-May-28 19:30N 37°51' W 122°29'1 1.5
2018-May-28 18:59N 37°52' W 122°29'0 0.0
2018-May-28 18:29N 37°52' W 122°29'0 0.0
2018-May-28 17:53N 37°52' W 122°29'0 0.0
2018-May-28 17:23N 37°52' W 122°29'0 0.0
2018-May-28 16:41N 37°52' W 122°29'0 0.0
2018-May-28 16:29N 37°52' W 122°29'0 0.0
2018-May-28 15:59N 37°52' W 122°29'0 0.0
2018-May-28 15:29N 37°52' W 122°29'0 0.0
2018-May-28 14:59N 37°52' W 122°29'0 0.0
2018-May-28 14:29N 37°52' W 122°29'0 0.0
2018-May-28 13:53N 37°52' W 122°29'0 0.0
2018-May-28 13:29N 37°52' W 122°29'0 0.0
2018-May-28 12:59N 37°52' W 122°29'0 0.0
2018-May-28 12:29N 37°52' W 122°29'0 0.0
2018-May-28 11:59N 37°52' W 122°29'0 0.0
2018-May-28 11:29N 37°52' W 122°29'0 0.0
2018-May-28 10:59N 37°52' W 122°29'0 0.0
2018-May-28 10:29N 37°52' W 122°29'0 0.0
2018-May-28 09:59N 37°52' W 122°29'0 0.0
2018-May-28 09:17N 37°52' W 122°29'0 0.0
2018-May-28 08:59N 37°52' W 122°29'0 0.0
2018-May-28 08:29N 37°52' W 122°29'0 0.0
2018-May-28 07:59N 37°52' W 122°29'0 0.0
2018-May-28 07:29N 37°52' W 122°29'0 0.0
2018-May-28 06:59N 37°52' W 122°29'0 0.0
2018-May-28 06:23N 37°52' W 122°29'0 0.0
2018-May-28 05:59N 37°52' W 122°29'0 0.0
2018-May-28 05:29N 37°52' W 122°29'0 0.0
2018-May-28 04:59N 37°52' W 122°29'0 0.0
2018-May-28 04:29N 37°52' W 122°29'0 0.0
2018-May-28 03:59N 37°52' W 122°29'0 0.0
2018-May-28 03:29N 37°52' W 122°29'0 0.0
2018-May-28 02:59N 37°52' W 122°29'0 0.0
2018-May-28 02:29N 37°52' W 122°29'0 0.0
2018-May-28 01:59N 37°52' W 122°29'0 0.0
2018-May-28 01:29N 37°52' W 122°29'0 0.0
2018-May-28 00:59N 37°52' W 122°29'0 0.0
2018-May-28 00:23N 37°52' W 122°29'0 0.4
2018-May-28 00:00N 37°52' W 122°29'2 3.4
2018-May-27 23:30N 37°52' W 122°27'2 4.3
2018-May-27 23:00N 37°51' W 122°25'3 5.2
2018-May-27 22:31N 37°49' W 122°28'2 4.3
2018-May-27 22:01N 37°48' W 122°30'2 3.3
2018-May-27 21:30N 37°49' W 122°32'0 0.0
2018-May-27 20:58N 37°49' W 122°32'0 0.0
2018-May-27 20:28N 37°49' W 122°32'0 0.3
2018-May-27 19:59N 37°49' W 122°32'2 3.7
2018-May-27 19:28N 37°48' W 122°30'2 3.2
2018-May-27 19:00N 37°49' W 122°29'2 3.2
2018-May-27 18:30N 37°49' W 122°27'2 4.8
2018-May-27 18:00N 37°51' W 122°28'1 2.4
2018-May-27 17:28N 37°52' W 122°29'0 0.0
2018-May-27 16:58N 37°52' W 122°29'0 0.0
2018-May-27 16:28N 37°52' W 122°29'0 0.0
2018-May-27 15:52N 37°52' W 122°29'0 0.0
2018-May-27 15:28N 37°52' W 122°29'0 0.0
2018-May-27 14:58N 37°52' W 122°29'0 0.0
2018-May-27 14:28N 37°52' W 122°29'0 0.0
2018-May-27 13:58N 37°52' W 122°29'0 0.0
2018-May-27 13:28N 37°52' W 122°29'0 0.0
2018-May-27 12:58N 37°52' W 122°29'0 0.0
2018-May-27 12:28N 37°52' W 122°29'0 0.0
2018-May-27 11:58N 37°52' W 122°29'0 0.0
2018-May-27 11:28N 37°52' W 122°29'0 0.0
2018-May-27 10:52N 37°52' W 122°29'0 0.0
2018-May-27 10:28N 37°52' W 122°29'0 0.0
2018-May-27 09:58N 37°52' W 122°29'0 0.0
2018-May-27 09:28N 37°52' W 122°29'0 0.0
2018-May-27 08:58N 37°52' W 122°29'0 0.0
2018-May-27 08:22N 37°52' W 122°29'0 0.0
2018-May-27 07:52N 37°52' W 122°29'0 0.0
2018-May-27 07:22N 37°52' W 122°29'0 0.0
2018-May-27 06:52N 37°52' W 122°29'0 0.0
2018-May-27 06:28N 37°52' W 122°29'0 0.0
2018-May-27 05:40N 37°52' W 122°29'0 0.0
2018-May-27 05:28N 37°52' W 122°29'0 0.0
2018-May-27 04:58N 37°52' W 122°29'0 0.0
2018-May-27 04:28N 37°52' W 122°29'0 0.0
2018-May-27 03:58N 37°52' W 122°29'0 0.0
2018-May-27 03:28N 37°52' W 122°29'0 0.0
2018-May-27 02:52N 37°52' W 122°29'0 0.0
2018-May-27 02:28N 37°52' W 122°29'0 0.0
2018-May-27 01:52N 37°52' W 122°29'0 0.0
2018-May-27 01:28N 37°52' W 122°29'0 0.0
2018-May-27 00:58N 37°52' W 122°29'0 0.0
2018-May-27 00:28N 37°52' W 122°29'0 0.0
2018-May-26 23:58N 37°52' W 122°29'0 0.0
2018-May-26 23:28N 37°52' W 122°29'0 0.0
2018-May-26 22:58N 37°52' W 122°29'0 0.0
2018-May-26 22:28N 37°52' W 122°29'0 0.0
2018-May-26 21:58N 37°52' W 122°29'0 0.0
2018-May-26 21:28N 37°52' W 122°29'0 0.0
2018-May-26 20:52N 37°52' W 122°29'0 0.0
2018-May-26 20:28N 37°52' W 122°29'0 0.0
2018-May-26 19:52N 37°52' W 122°29'0 0.0
2018-May-26 19:28N 37°52' W 122°29'0 0.0
2018-May-26 18:58N 37°52' W 122°29'0 0.0
2018-May-26 18:28N 37°52' W 122°29'0 0.0
2018-May-26 17:58N 37°52' W 122°29'0 0.0
2018-May-26 17:28N 37°52' W 122°29'0 0.0
2018-May-26 16:43N 37°52' W 122°29'0 0.0
2018-May-26 16:28N 37°52' W 122°29'0 0.0
2018-May-26 15:52N 37°52' W 122°29'0 0.0
2018-May-26 15:28N 37°52' W 122°29'0 0.0
2018-May-26 14:58N 37°52' W 122°29'0 0.0
2018-May-26 14:28N 37°52' W 122°29'0 0.0
2018-May-26 13:58N 37°52' W 122°29'0 0.0
2018-May-26 13:28N 37°52' W 122°29'0 0.0
2018-May-26 12:58N 37°52' W 122°29'0 0.0
2018-May-26 12:28N 37°52' W 122°29'0 0.0
2018-May-26 11:58N 37°52' W 122°29'0 0.0
2018-May-26 11:28N 37°52' W 122°29'0 0.0
2018-May-26 10:58N 37°52' W 122°29'0 0.0
2018-May-26 10:28N 37°52' W 122°29'0 0.0
2018-May-26 09:58N 37°52' W 122°29'0 0.0
2018-May-26 09:28N 37°52' W 122°29'0 0.0
2018-May-26 08:58N 37°52' W 122°29'0 0.0
2018-May-26 08:28N 37°52' W 122°29'0 0.0
2018-May-26 07:58N 37°52' W 122°29'0 0.0
2018-May-26 07:28N 37°52' W 122°29'0 0.0
2018-May-26 06:52N 37°52' W 122°29'0 0.0
2018-May-26 06:28N 37°52' W 122°29'0 0.0
2018-May-26 05:28N 37°52' W 122°29'0 0.0
2018-May-26 04:52N 37°52' W 122°29'0 0.0
2018-May-26 04:28N 37°52' W 122°29'0 0.0
2018-May-26 03:58N 37°52' W 122°29'0 0.0
2018-May-26 03:28N 37°52' W 122°29'0 0.0
2018-May-26 02:58N 37°52' W 122°29'0 0.0
2018-May-26 02:28N 37°52' W 122°29'0 0.0
2018-May-26 01:58N 37°52' W 122°29'0 0.0
2018-May-26 01:30N 37°52' W 122°29'3 6.1
2018-May-26 01:00N 37°50' W 122°26'2 4.7
2018-May-26 00:29N 37°48' W 122°24'2 3.6
2018-May-26 00:00N 37°47' W 122°23'3 6.2
2018-May-25 23:30N 37°44' W 122°22'  
Track history (hours):
 
Tides and Currents Weather Stations Pressure Air Temp Water Temp Dewpoint Dewpoint Depression Visibility Wind Speed Wind Dir Waves Ship Positions

Festina Lente

Owner: PK Ocean Charters, LLC, Sunnyvale, CA. More information available from US FCC via Universal Licensing System and Coast Guard Vessel Documentation Center.

Last reported at 2018-Jun-04 01:22 UTC. Time now 2018-Jul-17 04:05 UTC.
Position N 37°35' W 122°15'.
Warning: this ship's position is 43 days out of date.

Length 14 m.

Type: Sailing vessel. MMSI: 367557310.

Date/timePositionNaut miles runAvg speedWind from/ knotsBaromVisibWave heightAir tempDewpointWater temp
2018-Jun-04 01:22N 37°35' W 122°15'3 7.9
2018-Jun-04 01:00N 37°38' W 122°17'4 7.5
2018-Jun-04 00:30N 37°41' W 122°20'3 6.8
2018-Jun-04 00:00N 37°44' W 122°21'3 6.3
2018-Jun-03 23:30N 37°47' W 122°23'3 6.0
2018-Jun-03 23:00N 37°50' W 122°24'2 4.8
2018-Jun-03 22:30N 37°52' W 122°25'1 1.4
2018-Jun-03 21:58N 37°52' W 122°26'0 0.0
2018-Jun-03 21:28N 37°52' W 122°26'0 0.0
2018-Jun-03 20:58N 37°52' W 122°26'0 0.0
2018-Jun-03 20:28N 37°52' W 122°26'0 0.0
2018-Jun-03 19:58N 37°52' W 122°26'0 0.0
2018-Jun-03 19:28N 37°52' W 122°26'0 0.0
2018-Jun-03 18:58N 37°52' W 122°26'0 0.0
2018-Jun-03 18:28N 37°52' W 122°26'0 0.0
2018-Jun-03 17:58N 37°52' W 122°26'0 0.0
2018-Jun-03 17:28N 37°52' W 122°26'0 0.0
2018-Jun-03 16:49N 37°52' W 122°26'0 0.0
2018-Jun-03 16:28N 37°52' W 122°26'0 0.0
2018-Jun-03 15:56N 37°52' W 122°26'0 0.0
2018-Jun-03 15:28N 37°52' W 122°26'0 0.0
2018-Jun-03 14:56N 37°52' W 122°26'0 0.0
2018-Jun-03 14:16N 37°52' W 122°26'0 0.0
2018-Jun-03 13:58N 37°52' W 122°26'0 0.0
2018-Jun-03 13:28N 37°52' W 122°26'0 0.0
2018-Jun-03 12:28N 37°52' W 122°26'0 0.0
2018-Jun-03 11:49N 37°52' W 122°26'0 0.0
2018-Jun-03 11:22N 37°52' W 122°26'0 0.0
2018-Jun-03 10:58N 37°52' W 122°26'0 0.0
2018-Jun-03 10:28N 37°52' W 122°26'0 0.0
2018-Jun-03 09:58N 37°52' W 122°26'0 0.0
2018-Jun-03 09:28N 37°52' W 122°26'0 0.0
2018-Jun-03 08:58N 37°52' W 122°26'0 0.0
2018-Jun-03 08:28N 37°52' W 122°26'0 0.0
2018-Jun-03 07:58N 37°52' W 122°26'0 0.0
2018-Jun-03 07:28N 37°52' W 122°26'0 0.0
2018-Jun-03 06:58N 37°52' W 122°26'0 0.0
2018-Jun-03 06:28N 37°52' W 122°26'0 0.0
2018-Jun-03 05:58N 37°52' W 122°26'0 0.0
2018-Jun-03 05:28N 37°52' W 122°26'0 0.0
2018-Jun-03 04:58N 37°52' W 122°26'0 0.0
2018-Jun-03 04:28N 37°52' W 122°26'0 0.0
2018-Jun-03 03:58N 37°52' W 122°26'0 0.0
2018-Jun-03 03:28N 37°52' W 122°26'0 0.0
2018-Jun-03 02:59N 37°52' W 122°26'1 2.9
2018-Jun-03 02:30N 37°53' W 122°25'3 6.7
2018-Jun-03 02:01N 37°55' W 122°21'2 3.2
2018-Jun-03 01:30N 37°54' W 122°23'3 6.3
2018-Jun-03 01:00N 37°52' W 122°26'0 0.3
2018-Jun-03 00:29N 37°52' W 122°26'0 0.0
2018-Jun-02 23:59N 37°52' W 122°26'0 0.0
2018-Jun-02 23:29N 37°52' W 122°26'1 1.8
2018-Jun-02 23:00N 37°52' W 122°25'3 6.9
2018-Jun-02 22:30N 37°49' W 122°24'3 7.0
2018-Jun-02 22:00N 37°46' W 122°22'3 6.3
2018-Jun-02 21:30N 37°43' W 122°21'3 6.2
2018-Jun-02 21:00N 37°40' W 122°19'3 6.0
2018-Jun-02 20:30N 37°37' W 122°17'3 5.7
2018-Jun-02 20:00N 37°35' W 122°15'  
2018-May-29 00:03N 37°33' W 122°12'1 3.9
2018-May-28 23:45N 37°34' W 122°13'5 4.7
2018-May-28 22:47N 37°37' W 122°17'3 6.3
2018-May-28 22:19N 37°39' W 122°19'2 5.1
2018-May-28 22:00N 37°41' W 122°20'3 5.8
2018-May-28 21:30N 37°44' W 122°21'3 5.2
2018-May-28 21:00N 37°46' W 122°22'2 4.4
2018-May-28 20:30N 37°48' W 122°23'3 5.7
2018-May-28 20:00N 37°50' W 122°26'3 5.1
2018-May-28 19:30N 37°51' W 122°29'1 1.5
2018-May-28 18:59N 37°52' W 122°29'0 0.0
2018-May-28 18:29N 37°52' W 122°29'0 0.0
2018-May-28 17:53N 37°52' W 122°29'0 0.0
2018-May-28 17:23N 37°52' W 122°29'0 0.0
2018-May-28 16:41N 37°52' W 122°29'0 0.0
2018-May-28 16:29N 37°52' W 122°29'0 0.0
2018-May-28 15:59N 37°52' W 122°29'0 0.0
2018-May-28 15:29N 37°52' W 122°29'0 0.0
2018-May-28 14:59N 37°52' W 122°29'0 0.0
2018-May-28 14:29N 37°52' W 122°29'0 0.0
2018-May-28 13:53N 37°52' W 122°29'0 0.0
2018-May-28 13:29N 37°52' W 122°29'0 0.0
2018-May-28 12:59N 37°52' W 122°29'0 0.0
2018-May-28 12:29N 37°52' W 122°29'0 0.0
2018-May-28 11:59N 37°52' W 122°29'0 0.0
2018-May-28 11:29N 37°52' W 122°29'0 0.0
2018-May-28 10:59N 37°52' W 122°29'0 0.0
2018-May-28 10:29N 37°52' W 122°29'0 0.0
2018-May-28 09:59N 37°52' W 122°29'0 0.0
2018-May-28 09:17N 37°52' W 122°29'0 0.0
2018-May-28 08:59N 37°52' W 122°29'0 0.0
2018-May-28 08:29N 37°52' W 122°29'0 0.0
2018-May-28 07:59N 37°52' W 122°29'0 0.0
2018-May-28 07:29N 37°52' W 122°29'0 0.0
2018-May-28 06:59N 37°52' W 122°29'0 0.0
2018-May-28 06:23N 37°52' W 122°29'0 0.0
2018-May-28 05:59N 37°52' W 122°29'0 0.0
2018-May-28 05:29N 37°52' W 122°29'0 0.0
2018-May-28 04:59N 37°52' W 122°29'0 0.0
2018-May-28 04:29N 37°52' W 122°29'0 0.0
2018-May-28 03:59N 37°52' W 122°29'0 0.0
2018-May-28 03:29N 37°52' W 122°29'0 0.0
2018-May-28 02:59N 37°52' W 122°29'0 0.0
2018-May-28 02:29N 37°52' W 122°29'0 0.0
2018-May-28 01:59N 37°52' W 122°29'0 0.0
2018-May-28 01:29N 37°52' W 122°29'0 0.0
2018-May-28 00:59N 37°52' W 122°29'0 0.0
2018-May-28 00:23N 37°52' W 122°29'0 0.4
2018-May-28 00:00N 37°52' W 122°29'2 3.4
2018-May-27 23:30N 37°52' W 122°27'2 4.3
2018-May-27 23:00N 37°51' W 122°25'3 5.2
2018-May-27 22:31N 37°49' W 122°28'2 4.3
2018-May-27 22:01N 37°48' W 122°30'2 3.3
2018-May-27 21:30N 37°49' W 122°32'0 0.0
2018-May-27 20:58N 37°49' W 122°32'0 0.0
2018-May-27 20:28N 37°49' W 122°32'0 0.3
2018-May-27 19:59N 37°49' W 122°32'2 3.7
2018-May-27 19:28N 37°48' W 122°30'2 3.2
2018-May-27 19:00N 37°49' W 122°29'2 3.2
2018-May-27 18:30N 37°49' W 122°27'2 4.8
2018-May-27 18:00N 37°51' W 122°28'1 2.4
2018-May-27 17:28N 37°52' W 122°29'0 0.0
2018-May-27 16:58N 37°52' W 122°29'0 0.0
2018-May-27 16:28N 37°52' W 122°29'0 0.0
2018-May-27 15:52N 37°52' W 122°29'0 0.0
2018-May-27 15:28N 37°52' W 122°29'0 0.0
2018-May-27 14:58N 37°52' W 122°29'0 0.0
2018-May-27 14:28N 37°52' W 122°29'0 0.0
2018-May-27 13:58N 37°52' W 122°29'0 0.0
2018-May-27 13:28N 37°52' W 122°29'0 0.0
2018-May-27 12:58N 37°52' W 122°29'0 0.0
2018-May-27 12:28N 37°52' W 122°29'0 0.0
2018-May-27 11:58N 37°52' W 122°29'0 0.0
2018-May-27 11:28N 37°52' W 122°29'0 0.0
2018-May-27 10:52N 37°52' W 122°29'0 0.0
2018-May-27 10:28N 37°52' W 122°29'0 0.0
2018-May-27 09:58N 37°52' W 122°29'0 0.0
2018-May-27 09:28N 37°52' W 122°29'0 0.0
2018-May-27 08:58N 37°52' W 122°29'0 0.0
2018-May-27 08:22N 37°52' W 122°29'0 0.0
2018-May-27 07:52N 37°52' W 122°29'0 0.0
2018-May-27 07:22N 37°52' W 122°29'0 0.0
2018-May-27 06:52N 37°52' W 122°29'0 0.0
2018-May-27 06:28N 37°52' W 122°29'0 0.0
2018-May-27 05:40N 37°52' W 122°29'0 0.0
2018-May-27 05:28N 37°52' W 122°29'0 0.0
2018-May-27 04:58N 37°52' W 122°29'0 0.0
2018-May-27 04:28N 37°52' W 122°29'0 0.0
2018-May-27 03:58N 37°52' W 122°29'0 0.0
2018-May-27 03:28N 37°52' W 122°29'0 0.0
2018-May-27 02:52N 37°52' W 122°29'0 0.0
2018-May-27 02:28N 37°52' W 122°29'0 0.0
2018-May-27 01:52N 37°52' W 122°29'0 0.0
2018-May-27 01:28N 37°52' W 122°29'0 0.0
2018-May-27 00:58N 37°52' W 122°29'0 0.0
2018-May-27 00:28N 37°52' W 122°29'0 0.0
2018-May-26 23:58N 37°52' W 122°29'0 0.0
2018-May-26 23:28N 37°52' W 122°29'0 0.0
2018-May-26 22:58N 37°52' W 122°29'0 0.0
2018-May-26 22:28N 37°52' W 122°29'0 0.0
2018-May-26 21:58N 37°52' W 122°29'0 0.0
2018-May-26 21:28N 37°52' W 122°29'0 0.0
2018-May-26 20:52N 37°52' W 122°29'0 0.0
2018-May-26 20:28N 37°52' W 122°29'0 0.0
2018-May-26 19:52N 37°52' W 122°29'0 0.0
2018-May-26 19:28N 37°52' W 122°29'0 0.0
2018-May-26 18:58N 37°52' W 122°29'0 0.0
2018-May-26 18:28N 37°52' W 122°29'0 0.0
2018-May-26 17:58N 37°52' W 122°29'0 0.0
2018-May-26 17:28N 37°52' W 122°29'0 0.0
2018-May-26 16:43N 37°52' W 122°29'0 0.0
2018-May-26 16:28N 37°52' W 122°29'0 0.0
2018-May-26 15:52N 37°52' W 122°29'0 0.0
2018-May-26 15:28N 37°52' W 122°29'0 0.0
2018-May-26 14:58N 37°52' W 122°29'0 0.0
2018-May-26 14:28N 37°52' W 122°29'0 0.0
2018-May-26 13:58N 37°52' W 122°29'0 0.0
2018-May-26 13:28N 37°52' W 122°29'0 0.0
2018-May-26 12:58N 37°52' W 122°29'0 0.0
2018-May-26 12:28N 37°52' W 122°29'0 0.0
2018-May-26 11:58N 37°52' W 122°29'0 0.0
2018-May-26 11:28N 37°52' W 122°29'0 0.0
2018-May-26 10:58N 37°52' W 122°29'0 0.0
2018-May-26 10:28N 37°52' W 122°29'0 0.0
2018-May-26 09:58N 37°52' W 122°29'0 0.0
2018-May-26 09:28N 37°52' W 122°29'0 0.0
2018-May-26 08:58N 37°52' W 122°29'0 0.0
2018-May-26 08:28N 37°52' W 122°29'0 0.0
2018-May-26 07:58N 37°52' W 122°29'0 0.0
2018-May-26 07:28N 37°52' W 122°29'0 0.0
2018-May-26 06:52N 37°52' W 122°29'0 0.0
2018-May-26 06:28N 37°52' W 122°29'0 0.0
2018-May-26 05:28N 37°52' W 122°29'0 0.0
2018-May-26 04:52N 37°52' W 122°29'0 0.0
2018-May-26 04:28N 37°52' W 122°29'0 0.0
2018-May-26 03:58N 37°52' W 122°29'0 0.0
2018-May-26 03:28N 37°52' W 122°29'0 0.0
2018-May-26 02:58N 37°52' W 122°29'0 0.0
2018-May-26 02:28N 37°52' W 122°29'0 0.0
2018-May-26 01:58N 37°52' W 122°29'0 0.0
2018-May-26 01:30N 37°52' W 122°29'3 6.1
2018-May-26 01:00N 37°50' W 122°26'2 4.7
2018-May-26 00:29N 37°48' W 122°24'2 3.6
2018-May-26 00:00N 37°47' W 122°23'3 6.2
2018-May-25 23:30N 37°44' W 122°22'  

Dump ship's entire track history